createdAt,value
2023-03-04T09:08:53.732Z,80.63
2023-03-04T09:11:22.082Z,76.20
2023-03-04T09:13:50.472Z,77.35
2023-03-04T09:16:18.990Z,59.63
2023-03-04T09:18:47.604Z,73.68
2023-03-04T09:21:16.155Z,62.67
2023-03-04T09:23:44.408Z,65.22
2023-03-04T09:26:22.769Z,62.60
2023-03-04T09:28:55.662Z,67.45
2023-03-04T09:31:24.786Z,59.70
2023-03-04T09:33:54.031Z,56.05
2023-03-04T09:36:23.187Z,58.63
2023-03-04T09:38:51.818Z,65.75
2023-03-04T09:41:24.815Z,66.53
2023-03-04T09:43:55.117Z,48.10
2023-03-04T09:46:39.812Z,55.85
2023-03-04T09:49:08.438Z,48.45
2023-03-04T09:51:45.697Z,73.82
2023-03-04T09:54:46.764Z,63.88
2023-03-04T09:57:52.021Z,76.15
2023-03-04T10:00:39.507Z,55.08
2023-03-04T10:03:10.639Z,51.63
2023-03-04T10:06:04.145Z,44.87
2023-03-04T10:08:57.160Z,50.55
2023-03-04T10:11:44.701Z,58.78
2023-03-04T10:14:57.588Z,56.63
2023-03-04T10:17:33.628Z,49.70
2023-03-04T10:20:07.971Z,52.95
2023-03-04T10:22:42.630Z,45.00
2023-03-04T10:25:24.521Z,51.50
2023-03-04T10:28:01.653Z,44.25
2023-03-04T10:30:48.414Z,45.00
2023-03-04T10:33:22.794Z,54.58
2023-03-04T10:36:18.174Z,42.72
2023-03-04T10:38:46.834Z,60.80
2023-03-04T10:41:18.440Z,49.25
2023-03-04T10:44:00.924Z,69.05
2023-03-04T10:46:29.280Z,55.08
2023-03-04T10:48:58.555Z,60.10
2023-03-04T10:51:31.061Z,103.07
2023-03-04T10:54:08.023Z,67.15
2023-03-04T10:56:43.464Z,70.70
2023-03-04T10:59:45.246Z,51.95
2023-03-04T11:02:33.055Z,42.00
2023-03-04T11:05:20.288Z,51.15
2023-03-04T11:08:01.448Z,52.20
2023-03-04T11:10:31.061Z,44.10
2023-03-04T11:13:20.174Z,49.55
2023-03-04T11:15:58.199Z,41.97
2023-03-04T11:18:40.068Z,48.53
2023-03-04T11:21:14.359Z,48.28
2023-03-04T11:24:25.738Z,50.85
2023-03-04T11:27:14.928Z,56.15
2023-03-04T11:29:55.784Z,51.30
2023-03-04T11:32:32.213Z,59.65
2023-03-04T11:35:23.827Z,46.13
2023-03-04T11:38:01.433Z,62.88
2023-03-04T11:40:52.228Z,48.08
2023-03-04T11:43:33.235Z,46.40
2023-03-04T11:46:16.911Z,38.15
2023-03-04T11:49:02.363Z,54.65
2023-03-04T11:51:39.433Z,39.15
2023-03-04T11:54:34.493Z,65.90
2023-03-04T11:57:12.783Z,46.58
2023-03-04T12:00:40.110Z,65.97
2023-03-04T12:03:43.746Z,49.95
2023-03-04T12:06:39.936Z,45.05
2023-03-04T12:09:40.314Z,47.75
2023-03-04T12:12:33.492Z,48.85
2023-03-04T12:15:11.184Z,63.85
2023-03-04T12:17:45.742Z,39.00
2023-03-04T12:20:50.467Z,46.33
2023-03-04T12:23:42.368Z,51.13
2023-03-04T12:26:29.141Z,47.25
2023-03-04T12:29:15.861Z,61.40
2023-03-04T12:31:46.821Z,46.50
2023-03-04T12:34:33.606Z,44.10
2023-03-04T12:37:24.774Z,60.22
2023-03-04T12:40:24.110Z,61.70
2023-03-04T12:43:47.568Z,49.85
2023-03-04T12:46:36.054Z,36.13
2023-03-04T12:49:19.352Z,40.97
2023-03-04T12:52:05.850Z,44.60
2023-03-04T12:55:14.924Z,40.58
2023-03-04T12:57:44.015Z,42.38
2023-03-04T13:00:22.892Z,41.67
2023-03-04T13:03:12.409Z,48.35
2023-03-04T13:05:43.576Z,37.03
2023-03-04T13:08:31.432Z,48.67
2023-03-04T13:11:04.770Z,53.55
2023-03-04T13:13:39.517Z,40.00
2023-03-04T13:16:23.174Z,42.35
2023-03-04T13:18:52.202Z,46.10
2023-03-04T13:21:44.720Z,45.58
2023-03-04T13:24:45.975Z,67.18
2023-03-04T13:27:51.472Z,46.42
2023-03-04T13:30:59.064Z,45.38
2023-03-04T13:33:27.431Z,44.20
2023-03-04T13:35:55.835Z,39.25
2023-03-04T13:38:30.328Z,48.50
2023-03-04T13:41:07.890Z,48.22
2023-03-04T13:43:40.830Z,46.10
2023-03-04T13:46:21.471Z,42.85
2023-03-04T13:48:52.669Z,68.82
2023-03-04T13:51:40.872Z,34.57
2023-03-04T13:54:14.771Z,42.92
2023-03-04T13:56:43.827Z,45.35
2023-03-04T13:59:27.719Z,57.00
2023-03-04T14:01:57.863Z,40.47
2023-03-04T14:04:37.688Z,50.42
2023-03-04T14:07:28.491Z,52.20
2023-03-04T14:10:23.643Z,44.50
2023-03-04T14:12:58.675Z,46.83
2023-03-04T14:15:35.942Z,38.72
2023-03-04T14:18:06.090Z,46.03
2023-03-04T14:20:50.170Z,36.75
2023-03-04T14:23:25.997Z,42.15
2023-03-04T14:26:12.129Z,40.22
2023-03-04T14:28:51.379Z,40.95
2023-03-04T14:31:22.595Z,62.75
2023-03-04T14:33:55.186Z,53.53
2023-03-04T14:36:24.674Z,58.22
2023-03-04T14:38:56.894Z,79.10
2023-03-04T14:41:34.363Z,55.63
2023-03-04T14:44:13.544Z,49.40
2023-03-04T14:47:06.006Z,42.72
2023-03-04T14:49:37.876Z,40.58
2023-03-04T14:52:06.805Z,47.30
2023-03-04T14:54:41.294Z,38.38
2023-03-04T14:57:27.203Z,44.50
2023-03-04T14:59:55.694Z,36.08
2023-03-04T15:02:38.836Z,39.03
2023-03-04T15:05:18.388Z,34.22
2023-03-04T15:07:58.788Z,45.78
2023-03-04T15:10:31.120Z,43.90
2023-03-04T15:13:00.926Z,34.80
2023-03-04T15:15:43.641Z,37.50
2023-03-04T15:18:28.922Z,46.15
2023-03-04T15:21:04.849Z,41.03
2023-03-04T15:23:34.380Z,41.60
2023-03-04T15:26:05.286Z,46.75
2023-03-04T15:28:39.929Z,45.08
2023-03-04T15:31:20.240Z,55.72
2023-03-04T15:33:49.085Z,38.20
2023-03-04T15:36:23.279Z,45.20
2023-03-04T15:38:53.664Z,54.95
2023-03-04T15:41:27.037Z,49.03
2023-03-04T15:43:55.804Z,39.55
2023-03-04T15:46:24.417Z,35.38
2023-03-04T15:48:52.864Z,32.33
2023-03-04T15:51:24.644Z,50.42
2023-03-04T15:53:59.097Z,41.75
2023-03-04T15:56:32.646Z,47.67
2023-03-04T15:59:23.955Z,51.63
2023-03-04T16:01:52.164Z,47.92
2023-03-04T16:04:20.532Z,40.33
2023-03-04T16:06:50.238Z,32.70
2023-03-04T16:09:19.955Z,32.45
2023-03-04T16:11:48.582Z,45.95
2023-03-04T16:14:17.287Z,34.75
2023-03-04T16:16:45.556Z,40.15
2023-03-04T16:19:13.899Z,41.65
2023-03-04T16:21:42.296Z,35.28
2023-03-04T16:24:18.540Z,52.22
2023-03-04T16:26:47.461Z,38.40
2023-03-04T16:29:16.627Z,42.88
2023-03-04T16:31:45.198Z,44.67
2023-03-04T16:34:13.712Z,49.38
2023-03-04T16:36:42.061Z,42.72
2023-03-04T16:39:21.013Z,38.17
2023-03-04T16:41:49.879Z,54.50
2023-03-04T16:44:18.244Z,38.55
2023-03-04T16:46:46.726Z,35.72
2023-03-04T16:49:14.901Z,49.25
2023-03-04T16:51:47.177Z,27.33
2023-03-04T16:54:24.389Z,41.30
2023-03-04T16:56:52.813Z,44.60
2023-03-04T16:59:21.055Z,45.65
2023-03-04T17:01:50.137Z,53.65
2023-03-04T17:04:18.454Z,46.00
2023-03-04T17:06:46.804Z,68.15
2023-03-04T17:09:15.456Z,54.97
2023-03-04T17:11:46.352Z,56.70
2023-03-04T17:14:14.763Z,55.37
2023-03-04T17:16:43.094Z,45.78
2023-03-04T17:19:11.256Z,61.08
2023-03-04T17:21:39.618Z,57.92
2023-03-04T17:24:44.224Z,48.72
2023-03-04T17:27:20.990Z,51.03
2023-03-04T17:29:49.918Z,49.15
2023-03-04T17:32:18.258Z,67.75
2023-03-04T17:34:46.792Z,67.53
2023-03-04T17:37:16.001Z,73.80
2023-03-04T17:39:44.313Z,59.17
2023-03-04T17:42:12.908Z,63.53
2023-03-04T17:44:41.290Z,50.97
2023-03-04T17:47:09.902Z,50.83
2023-03-04T17:49:47.504Z,53.00
2023-03-04T17:52:15.746Z,53.40
2023-03-04T17:54:45.744Z,83.60
2023-03-04T17:57:15.658Z,68.55
2023-03-04T17:59:45.875Z,56.80
2023-03-04T18:02:16.761Z,48.97
2023-03-04T18:04:45.297Z,57.00
2023-03-04T18:07:13.526Z,45.08
2023-03-04T18:09:42.055Z,49.80
2023-03-04T18:12:10.868Z,55.63
2023-03-04T18:14:39.118Z,46.78
2023-03-04T18:17:07.458Z,41.97
2023-03-04T18:19:35.808Z,53.47
2023-03-04T18:22:04.211Z,46.45
2023-03-04T18:24:32.657Z,47.38
2023-03-04T18:27:00.847Z,45.92
2023-03-04T18:29:29.238Z,55.70
2023-03-04T18:31:57.598Z,69.65
2023-03-04T18:34:26.105Z,61.35
2023-03-04T18:36:54.358Z,89.38
2023-03-04T18:39:22.720Z,67.00
2023-03-04T18:41:51.186Z,77.53
2023-03-04T18:44:19.458Z,49.58
2023-03-04T18:46:55.106Z,52.20
2023-03-04T18:49:24.005Z,57.00
2023-03-04T18:51:52.808Z,57.78
2023-03-04T18:54:21.130Z,48.42
2023-03-04T18:56:55.262Z,80.90
2023-03-04T18:59:28.325Z,103.43
2023-03-04T19:01:56.898Z,104.85
2023-03-04T19:04:28.940Z,110.70
2023-03-04T19:09:25.680Z,128.50
2023-03-04T19:11:53.977Z,133.70
2023-03-04T19:14:22.278Z,153.32
2023-03-04T19:16:50.742Z,96.38
2023-03-04T19:19:19.251Z,139.73
2023-03-04T19:21:47.650Z,108.30
2023-03-04T19:24:16.029Z,146.18
2023-03-04T19:26:44.536Z,118.30
2023-03-04T19:29:13.005Z,104.28
2023-03-04T19:31:41.655Z,109.35
2023-03-04T19:34:10.522Z,87.38
2023-03-04T19:36:39.543Z,83.97
2023-03-04T19:39:09.587Z,101.18
2023-03-04T19:41:40.952Z,68.38
2023-03-04T19:44:09.422Z,111.85
2023-03-04T19:46:37.635Z,92.45
2023-03-04T19:49:06.042Z,109.30
2023-03-04T19:51:34.307Z,124.20
2023-03-04T19:54:03.037Z,120.30
2023-03-04T19:56:34.232Z,123.53
2023-03-04T19:59:02.903Z,85.18
2023-03-04T20:01:36.740Z,152.07
2023-03-04T20:04:08.592Z,111.93
2023-03-04T20:06:45.574Z,292.58
2023-03-04T20:09:15.676Z,269.45
2023-03-04T20:11:57.076Z,155.27
2023-03-04T20:14:26.532Z,135.00
2023-03-04T20:16:54.890Z,112.63
2023-03-04T20:19:23.201Z,122.28
2023-03-04T20:21:51.579Z,131.88
2023-03-04T20:24:20.165Z,178.93
2023-03-04T20:40:32.012Z,92.13
2023-03-04T20:43:00.328Z,76.22
2023-03-04T20:45:28.983Z,58.70
2023-03-04T20:47:57.354Z,211.20
2023-03-04T20:50:25.797Z,106.63
2023-03-04T20:52:53.948Z,71.55
2023-03-04T20:55:22.447Z,178.30
2023-03-04T20:57:50.894Z,202.52
2023-03-04T21:00:19.520Z,206.30
2023-03-04T21:02:47.760Z,236.27
2023-03-04T21:05:16.505Z,101.70
2023-03-04T21:07:45.055Z,72.55
2023-03-04T21:10:13.468Z,86.38
2023-03-04T21:12:41.804Z,170.48
2023-03-04T21:15:10.675Z,273.00
2023-03-04T21:17:39.033Z,438.02
2023-03-04T21:20:08.067Z,455.33
2023-03-04T21:22:36.542Z,444.30
2023-03-04T21:25:05.502Z,184.40
2023-03-04T21:27:33.772Z,350.27
2023-03-04T21:30:02.044Z,396.90
2023-03-04T21:32:30.910Z,303.33
2023-03-04T21:34:59.249Z,104.82
2023-03-04T21:37:27.841Z,120.25
2023-03-04T21:39:56.976Z,71.28
2023-03-04T21:42:26.542Z,84.15
2023-03-04T21:44:56.530Z,76.05
2023-03-04T21:47:25.074Z,124.22
2023-03-04T21:49:53.654Z,62.63
2023-03-04T21:52:23.283Z,94.03
2023-03-04T21:54:52.017Z,128.82
2023-03-04T21:57:21.048Z,227.27
2023-03-04T21:59:50.031Z,228.50
2023-03-04T22:02:22.362Z,306.85
2023-03-04T22:04:51.058Z,271.67
2023-03-04T22:07:19.588Z,228.07
2023-03-04T22:09:47.989Z,204.95
2023-03-04T22:12:18.438Z,170.77
2023-03-04T22:14:48.258Z,72.13
2023-03-04T22:17:17.009Z,74.88
2023-03-04T22:19:45.776Z,108.43
2023-03-04T22:22:14.145Z,110.63
2023-03-04T22:24:42.954Z,82.15
2023-03-04T22:27:12.280Z,91.32
2023-03-04T22:29:40.664Z,120.60
2023-03-04T22:32:09.129Z,89.45
2023-03-04T22:34:37.529Z,250.65
2023-03-04T22:37:06.085Z,387.65
2023-03-04T22:39:34.597Z,223.45
2023-03-04T22:42:03.131Z,161.05
2023-03-04T22:44:31.777Z,158.63
2023-03-04T22:47:00.231Z,130.50
2023-03-04T22:49:28.606Z,162.88
2023-03-04T22:51:56.991Z,185.55
2023-03-04T22:54:25.450Z,207.25
2023-03-04T22:56:54.012Z,282.67
2023-03-04T22:59:22.515Z,404.00
2023-03-04T23:01:51.000Z,456.70
2023-03-04T23:04:22.186Z,453.95
2023-03-04T23:06:50.756Z,276.75
2023-03-04T23:09:19.164Z,304.63
2023-03-04T23:11:47.625Z,376.38
2023-03-04T23:14:15.937Z,338.90
2023-03-04T23:16:44.472Z,235.07
2023-03-04T23:19:14.990Z,228.30
2023-03-04T23:21:44.280Z,248.05
2023-03-04T23:24:13.657Z,215.73
2023-03-04T23:26:44.106Z,189.77
2023-03-04T23:29:16.070Z,105.53
2023-03-04T23:31:44.825Z,104.43
2023-03-04T23:34:13.133Z,110.13
2023-03-04T23:36:41.596Z,176.00
2023-03-04T23:39:10.312Z,151.43
2023-03-04T23:41:39.081Z,214.38
2023-03-04T23:44:07.680Z,474.27
2023-03-04T23:46:36.211Z,329.45
2023-03-04T23:49:05.382Z,250.02
2023-03-04T23:51:33.963Z,195.13
2023-03-04T23:54:02.391Z,79.78
2023-03-04T23:56:32.088Z,94.72
2023-03-04T23:59:01.186Z,88.18
